sensor_id;sensor_type;location;lat;lon;timestamp;P1;durP1;ratioP1;P2;durP2;ratioP2
15931;SDS011;8065;49.520;11.284;2023-01-04T00:01:39;11.43;;;9.47;;
15931;SDS011;8065;49.520;11.284;2023-01-04T00:04:06;13.50;;;9.40;;
15931;SDS011;8065;49.520;11.284;2023-01-04T00:06:32;11.00;;;9.07;;
15931;SDS011;8065;49.520;11.284;2023-01-04T00:08:59;11.73;;;8.63;;
15931;SDS011;8065;49.520;11.284;2023-01-04T00:11:25;9.97;;;8.07;;
15931;SDS011;8065;49.520;11.284;2023-01-04T00:13:54;10.10;;;8.33;;
15931;SDS011;8065;49.520;11.284;2023-01-04T00:16:24;12.27;;;9.00;;
15931;SDS011;8065;49.520;11.284;2023-01-04T00:18:52;10.93;;;8.10;;
15931;SDS011;8065;49.520;11.284;2023-01-04T00:21:20;11.93;;;9.00;;
15931;SDS011;8065;49.520;11.284;2023-01-04T00:23:48;11.50;;;8.53;;
15931;SDS011;8065;49.520;11.284;2023-01-04T00:26:17;12.43;;;8.77;;
15931;SDS011;8065;49.520;11.284;2023-01-04T00:28:45;11.87;;;9.10;;
15931;SDS011;8065;49.520;11.284;2023-01-04T00:31:13;12.23;;;9.07;;
15931;SDS011;8065;49.520;11.284;2023-01-04T00:33:42;10.10;;;9.00;;
15931;SDS011;8065;49.520;11.284;2023-01-04T00:36:09;9.60;;;8.47;;
15931;SDS011;8065;49.520;11.284;2023-01-04T00:38:37;13.30;;;8.97;;
15931;SDS011;8065;49.520;11.284;2023-01-04T00:41:05;10.57;;;8.93;;
15931;SDS011;8065;49.520;11.284;2023-01-04T00:43:33;10.27;;;8.47;;
15931;SDS011;8065;49.520;11.284;2023-01-04T00:46:00;9.03;;;8.13;;
15931;SDS011;8065;49.520;11.284;2023-01-04T00:48:27;10.23;;;8.67;;
15931;SDS011;8065;49.520;11.284;2023-01-04T00:50:56;10.63;;;9.00;;
15931;SDS011;8065;49.520;11.284;2023-01-04T00:53:23;11.30;;;9.67;;
15931;SDS011;8065;49.520;11.284;2023-01-04T00:55:50;12.10;;;9.20;;
15931;SDS011;8065;49.520;11.284;2023-01-04T00:58:16;12.20;;;9.93;;
15931;SDS011;8065;49.520;11.284;2023-01-04T01:00:43;10.40;;;9.10;;
15931;SDS011;8065;49.520;11.284;2023-01-04T01:03:09;12.53;;;9.70;;
15931;SDS011;8065;49.520;11.284;2023-01-04T01:05:36;11.90;;;9.37;;
15931;SDS011;8065;49.520;11.284;2023-01-04T01:08:04;10.90;;;9.23;;
15931;SDS011;8065;49.520;11.284;2023-01-04T01:10:44;11.90;;;9.77;;
15931;SDS011;8065;49.520;11.284;2023-01-04T01:13:11;12.87;;;10.03;;
15931;SDS011;8065;49.520;11.284;2023-01-04T01:15:37;11.90;;;9.93;;
15931;SDS011;8065;49.520;11.284;2023-01-04T01:18:04;12.50;;;10.43;;
15931;SDS011;8065;49.520;11.284;2023-01-04T01:20:30;12.90;;;10.37;;
15931;SDS011;8065;49.520;11.284;2023-01-04T01:22:57;14.00;;;11.10;;
15931;SDS011;8065;49.520;11.284;2023-01-04T01:25:24;16.47;;;11.50;;
15931;SDS011;8065;49.520;11.284;2023-01-04T01:27:51;14.43;;;10.60;;
15931;SDS011;8065;49.520;11.284;2023-01-04T01:30:17;12.17;;;9.87;;
15931;SDS011;8065;49.520;11.284;2023-01-04T01:32:44;10.17;;;8.30;;
15931;SDS011;8065;49.520;11.284;2023-01-04T01:35:10;10.40;;;8.60;;
15931;SDS011;8065;49.520;11.284;2023-01-04T01:37:36;9.40;;;8.17;;
15931;SDS011;8065;49.520;11.284;2023-01-04T01:40:03;9.47;;;8.47;;
15931;SDS011;8065;49.520;11.284;2023-01-04T01:42:32;12.20;;;9.27;;
15931;SDS011;8065;49.520;11.284;2023-01-04T01:44:59;10.67;;;8.47;;
15931;SDS011;8065;49.520;11.284;2023-01-04T01:47:31;9.33;;;8.27;;
15931;SDS011;8065;49.520;11.284;2023-01-04T01:50:04;9.37;;;8.03;;
15931;SDS011;8065;49.520;11.284;2023-01-04T01:52:39;12.37;;;8.90;;
15931;SDS011;8065;49.520;11.284;2023-01-04T01:55:06;10.93;;;9.03;;
15931;SDS011;8065;49.520;11.284;2023-01-04T01:57:37;12.63;;;9.27;;
15931;SDS011;8065;49.520;11.284;2023-01-04T02:00:06;11.23;;;9.33;;
15931;SDS011;8065;49.520;11.284;2023-01-04T02:02:36;12.63;;;9.73;;
15931;SDS011;8065;49.520;11.284;2023-01-04T02:05:07;14.60;;;11.03;;
15931;SDS011;8065;49.520;11.284;2023-01-04T02:07:34;16.03;;;11.30;;
15931;SDS011;8065;49.520;11.284;2023-01-04T02:10:02;12.83;;;10.37;;
15931;SDS011;8065;49.520;11.284;2023-01-04T02:12:29;12.40;;;9.27;;
15931;SDS011;8065;49.520;11.284;2023-01-04T02:14:57;11.60;;;8.93;;
15931;SDS011;8065;49.520;11.284;2023-01-04T02:17:28;13.37;;;9.50;;
15931;SDS011;8065;49.520;11.284;2023-01-04T02:20:10;10.40;;;8.23;;
15931;SDS011;8065;49.520;11.284;2023-01-04T02:23:32;12.63;;;9.17;;
15931;SDS011;8065;49.520;11.284;2023-01-04T02:26:28;9.63;;;8.03;;
15931;SDS011;8065;49.520;11.284;2023-01-04T02:29:16;9.80;;;8.00;;
15931;SDS011;8065;49.520;11.284;2023-01-04T02:32:03;9.33;;;7.77;;
15931;SDS011;8065;49.520;11.284;2023-01-04T02:34:38;9.70;;;8.23;;
15931;SDS011;8065;49.520;11.284;2023-01-04T02:37:13;8.60;;;7.57;;
15931;SDS011;8065;49.520;11.284;2023-01-04T02:39:46;10.07;;;8.03;;
15931;SDS011;8065;49.520;11.284;2023-01-04T02:42:20;11.77;;;8.67;;
15931;SDS011;8065;49.520;11.284;2023-01-04T02:45:13;12.70;;;8.47;;
15931;SDS011;8065;49.520;11.284;2023-01-04T02:47:43;9.13;;;7.83;;
15931;SDS011;8065;49.520;11.284;2023-01-04T02:50:28;9.67;;;7.70;;
15931;SDS011;8065;49.520;11.284;2023-01-04T02:52:59;10.07;;;7.90;;
15931;SDS011;8065;49.520;11.284;2023-01-04T02:55:29;10.07;;;8.17;;
15931;SDS011;8065;49.520;11.284;2023-01-04T02:58:06;12.80;;;9.70;;
15931;SDS011;8065;49.520;11.284;2023-01-04T03:00:41;13.07;;;9.33;;
15931;SDS011;8065;49.520;11.284;2023-01-04T03:03:31;13.37;;;9.93;;
15931;SDS011;8065;49.520;11.284;2023-01-04T03:06:31;12.03;;;9.47;;
15931;SDS011;8065;49.520;11.284;2023-01-04T03:09:06;13.93;;;10.13;;
15931;SDS011;8065;49.520;11.284;2023-01-04T03:11:37;14.83;;;10.23;;
15931;SDS011;8065;49.520;11.284;2023-01-04T03:14:27;15.33;;;12.07;;
15931;SDS011;8065;49.520;11.284;2023-01-04T03:16:59;17.50;;;12.07;;
15931;SDS011;8065;49.520;11.284;2023-01-04T03:19:29;15.17;;;11.50;;
15931;SDS011;8065;49.520;11.284;2023-01-04T03:22:14;15.40;;;11.40;;
15931;SDS011;8065;49.520;11.284;2023-01-04T03:25:03;15.93;;;12.00;;
15931;SDS011;8065;49.520;11.284;2023-01-04T03:27:50;14.00;;;11.10;;
15931;SDS011;8065;49.520;11.284;2023-01-04T03:30:38;14.03;;;10.97;;
15931;SDS011;8065;49.520;11.284;2023-01-04T03:33:29;15.13;;;12.00;;
15931;SDS011;8065;49.520;11.284;2023-01-04T03:36:18;14.23;;;11.13;;
15931;SDS011;8065;49.520;11.284;2023-01-04T03:38:53;15.63;;;11.43;;
15931;SDS011;8065;49.520;11.284;2023-01-04T03:41:43;15.53;;;11.67;;
15931;SDS011;8065;49.520;11.284;2023-01-04T03:44:31;14.03;;;11.27;;
15931;SDS011;8065;49.520;11.284;2023-01-04T03:47:24;13.63;;;10.87;;
15931;SDS011;8065;49.520;11.284;2023-01-04T03:50:13;14.20;;;10.80;;
15931;SDS011;8065;49.520;11.284;2023-01-04T03:52:48;15.33;;;11.53;;
15931;SDS011;8065;49.520;11.284;2023-01-04T03:55:17;16.70;;;11.73;;
15931;SDS011;8065;49.520;11.284;2023-01-04T03:57:44;16.80;;;11.53;;
15931;SDS011;8065;49.520;11.284;2023-01-04T04:00:13;16.43;;;11.63;;
15931;SDS011;8065;49.520;11.284;2023-01-04T04:02:41;14.97;;;11.50;;
15931;SDS011;8065;49.520;11.284;2023-01-04T04:05:10;15.47;;;11.17;;
15931;SDS011;8065;49.520;11.284;2023-01-04T04:08:01;13.70;;;10.57;;
15931;SDS011;8065;49.520;11.284;2023-01-04T04:10:45;14.43;;;10.33;;
15931;SDS011;8065;49.520;11.284;2023-01-04T04:13:12;18.07;;;11.23;;
15931;SDS011;8065;49.520;11.284;2023-01-04T04:15:38;14.30;;;10.83;;
15931;SDS011;8065;49.520;11.284;2023-01-04T04:18:05;14.60;;;11.27;;
15931;SDS011;8065;49.520;11.284;2023-01-04T04:20:31;16.07;;;12.20;;
15931;SDS011;8065;49.520;11.284;2023-01-04T04:22:58;21.93;;;10.53;;
15931;SDS011;8065;49.520;11.284;2023-01-04T04:25:26;15.27;;;10.77;;
15931;SDS011;8065;49.520;11.284;2023-01-04T04:27:53;15.50;;;11.47;;
15931;SDS011;8065;49.520;11.284;2023-01-04T04:30:19;21.43;;;12.30;;
15931;SDS011;8065;49.520;11.284;2023-01-04T04:32:46;16.63;;;12.13;;
15931;SDS011;8065;49.520;11.284;2023-01-04T04:35:12;17.50;;;12.40;;
15931;SDS011;8065;49.520;11.284;2023-01-04T04:37:39;17.70;;;12.73;;
15931;SDS011;8065;49.520;11.284;2023-01-04T04:40:05;18.63;;;12.83;;
15931;SDS011;8065;49.520;11.284;2023-01-04T04:42:54;19.20;;;13.30;;
15931;SDS011;8065;49.520;11.284;2023-01-04T04:45:20;19.67;;;13.77;;
15931;SDS011;8065;49.520;11.284;2023-01-04T04:47:46;19.43;;;13.67;;
15931;SDS011;8065;49.520;11.284;2023-01-04T04:50:13;18.77;;;13.30;;
15931;SDS011;8065;49.520;11.284;2023-01-04T04:52:39;18.97;;;13.30;;
15931;SDS011;8065;49.520;11.284;2023-01-04T04:55:06;19.13;;;12.97;;
15931;SDS011;8065;49.520;11.284;2023-01-04T04:57:33;18.83;;;13.60;;
15931;SDS011;8065;49.520;11.284;2023-01-04T05:00:01;20.80;;;13.23;;
15931;SDS011;8065;49.520;11.284;2023-01-04T05:02:27;18.40;;;13.30;;
15931;SDS011;8065;49.520;11.284;2023-01-04T05:04:54;19.50;;;13.70;;
15931;SDS011;8065;49.520;11.284;2023-01-04T05:07:20;20.47;;;13.70;;
15931;SDS011;8065;49.520;11.284;2023-01-04T05:09:47;17.53;;;12.70;;
15931;SDS011;8065;49.520;11.284;2023-01-04T05:12:13;17.40;;;12.50;;
15931;SDS011;8065;49.520;11.284;2023-01-04T05:14:56;18.33;;;12.83;;
15931;SDS011;8065;49.520;11.284;2023-01-04T05:17:24;19.70;;;13.33;;
15931;SDS011;8065;49.520;11.284;2023-01-04T05:19:51;21.77;;;14.13;;
15931;SDS011;8065;49.520;11.284;2023-01-04T05:22:17;21.43;;;13.90;;
15931;SDS011;8065;49.520;11.284;2023-01-04T05:24:43;20.83;;;14.60;;
15931;SDS011;8065;49.520;11.284;2023-01-04T05:27:10;19.20;;;13.60;;
15931;SDS011;8065;49.520;11.284;2023-01-04T05:29:36;19.17;;;13.17;;
15931;SDS011;8065;49.520;11.284;2023-01-04T05:32:20;20.60;;;13.20;;
15931;SDS011;8065;49.520;11.284;2023-01-04T05:34:48;18.90;;;13.37;;
15931;SDS011;8065;49.520;11.284;2023-01-04T05:37:14;18.20;;;12.77;;
15931;SDS011;8065;49.520;11.284;2023-01-04T05:39:41;18.43;;;12.97;;
15931;SDS011;8065;49.520;11.284;2023-01-04T05:42:07;19.67;;;13.30;;
15931;SDS011;8065;49.520;11.284;2023-01-04T05:44:53;18.90;;;13.17;;
15931;SDS011;8065;49.520;11.284;2023-01-04T05:47:20;18.10;;;13.07;;
15931;SDS011;8065;49.520;11.284;2023-01-04T05:49:48;18.87;;;13.27;;
15931;SDS011;8065;49.520;11.284;2023-01-04T05:52:15;18.23;;;12.77;;
15931;SDS011;8065;49.520;11.284;2023-01-04T05:54:41;19.93;;;13.33;;
15931;SDS011;8065;49.520;11.284;2023-01-04T05:57:08;18.23;;;13.60;;
15931;SDS011;8065;49.520;11.284;2023-01-04T05:59:34;17.50;;;12.87;;
15931;SDS011;8065;49.520;11.284;2023-01-04T06:02:01;19.40;;;12.97;;
15931;SDS011;8065;49.520;11.284;2023-01-04T06:04:27;18.67;;;13.30;;
15931;SDS011;8065;49.520;11.284;2023-01-04T06:06:55;18.67;;;13.13;;
15931;SDS011;8065;49.520;11.284;2023-01-04T06:09:22;17.87;;;12.57;;
15931;SDS011;8065;49.520;11.284;2023-01-04T06:11:51;18.80;;;12.73;;
15931;SDS011;8065;49.520;11.284;2023-01-04T06:14:17;19.03;;;12.30;;
15931;SDS011;8065;49.520;11.284;2023-01-04T06:16:44;18.37;;;13.20;;
15931;SDS011;8065;49.520;11.284;2023-01-04T06:19:10;19.27;;;12.80;;
15931;SDS011;8065;49.520;11.284;2023-01-04T06:21:37;17.40;;;12.07;;
15931;SDS011;8065;49.520;11.284;2023-01-04T06:24:05;16.07;;;11.10;;
15931;SDS011;8065;49.520;11.284;2023-01-04T06:26:32;22.03;;;13.10;;
15931;SDS011;8065;49.520;11.284;2023-01-04T06:28:58;19.13;;;12.40;;
15931;SDS011;8065;49.520;11.284;2023-01-04T06:31:24;21.10;;;14.17;;
15931;SDS011;8065;49.520;11.284;2023-01-04T06:33:51;19.20;;;13.40;;
15931;SDS011;8065;49.520;11.284;2023-01-04T06:36:17;19.63;;;13.37;;
15931;SDS011;8065;49.520;11.284;2023-01-04T06:38:44;19.33;;;13.47;;
15931;SDS011;8065;49.520;11.284;2023-01-04T06:41:12;19.57;;;12.83;;
15931;SDS011;8065;49.520;11.284;2023-01-04T06:43:38;20.13;;;13.20;;
15931;SDS011;8065;49.520;11.284;2023-01-04T06:46:04;20.10;;;12.83;;
15931;SDS011;8065;49.520;11.284;2023-01-04T06:48:31;18.03;;;12.50;;
15931;SDS011;8065;49.520;11.284;2023-01-04T06:50:57;19.17;;;12.40;;
15931;SDS011;8065;49.520;11.284;2023-01-04T06:53:24;19.67;;;12.57;;
15931;SDS011;8065;49.520;11.284;2023-01-04T06:55:51;17.80;;;11.70;;
15931;SDS011;8065;49.520;11.284;2023-01-04T06:58:19;16.80;;;12.07;;
15931;SDS011;8065;49.520;11.284;2023-01-04T07:00:45;17.33;;;12.10;;
15931;SDS011;8065;49.520;11.284;2023-01-04T07:03:12;20.43;;;12.73;;
15931;SDS011;8065;49.520;11.284;2023-01-04T07:05:38;17.93;;;11.43;;
15931;SDS011;8065;49.520;11.284;2023-01-04T07:08:05;14.87;;;10.63;;
15931;SDS011;8065;49.520;11.284;2023-01-04T07:10:31;16.43;;;11.07;;
15931;SDS011;8065;49.520;11.284;2023-01-04T07:12:58;16.40;;;11.10;;
15931;SDS011;8065;49.520;11.284;2023-01-04T07:15:25;18.33;;;12.83;;
15931;SDS011;8065;49.520;11.284;2023-01-04T07:17:52;17.23;;;11.33;;
15931;SDS011;8065;49.520;11.284;2023-01-04T07:20:18;16.33;;;11.47;;
15931;SDS011;8065;49.520;11.284;2023-01-04T07:22:45;17.60;;;12.17;;
15931;SDS011;8065;49.520;11.284;2023-01-04T07:25:11;17.23;;;12.00;;
15931;SDS011;8065;49.520;11.284;2023-01-04T07:27:38;17.23;;;11.80;;
15931;SDS011;8065;49.520;11.284;2023-01-04T07:30:04;16.57;;;11.23;;
15931;SDS011;8065;49.520;11.284;2023-01-04T07:32:33;15.37;;;11.47;;
15931;SDS011;8065;49.520;11.284;2023-01-04T07:35:00;17.50;;;11.37;;
15931;SDS011;8065;49.520;11.284;2023-01-04T07:37:26;13.57;;;10.33;;
15931;SDS011;8065;49.520;11.284;2023-01-04T07:39:52;15.83;;;10.67;;
15931;SDS011;8065;49.520;11.284;2023-01-04T07:42:19;14.53;;;10.63;;
15931;SDS011;8065;49.520;11.284;2023-01-04T07:44:45;13.20;;;9.30;;
15931;SDS011;8065;49.520;11.284;2023-01-04T07:47:12;14.13;;;9.63;;
15931;SDS011;8065;49.520;11.284;2023-01-04T07:49:40;14.03;;;9.60;;
15931;SDS011;8065;49.520;11.284;2023-01-04T07:52:06;13.80;;;9.77;;
15931;SDS011;8065;49.520;11.284;2023-01-04T07:54:33;15.57;;;9.90;;
15931;SDS011;8065;49.520;11.284;2023-01-04T07:56:59;14.20;;;10.10;;
15931;SDS011;8065;49.520;11.284;2023-01-04T07:59:26;13.40;;;9.80;;
15931;SDS011;8065;49.520;11.284;2023-01-04T08:01:52;13.53;;;9.83;;
15931;SDS011;8065;49.520;11.284;2023-01-04T08:04:20;12.63;;;9.17;;
15931;SDS011;8065;49.520;11.284;2023-01-04T08:06:49;13.63;;;8.90;;
15931;SDS011;8065;49.520;11.284;2023-01-04T08:09:16;12.57;;;8.97;;
15931;SDS011;8065;49.520;11.284;2023-01-04T08:11:43;10.07;;;8.27;;
15931;SDS011;8065;49.520;11.284;2023-01-04T08:14:10;12.27;;;9.27;;
15931;SDS011;8065;49.520;11.284;2023-01-04T08:16:37;12.13;;;9.00;;
15931;SDS011;8065;49.520;11.284;2023-01-04T08:19:06;13.80;;;9.20;;
15931;SDS011;8065;49.520;11.284;2023-01-04T08:21:34;11.43;;;8.70;;
15931;SDS011;8065;49.520;11.284;2023-01-04T08:24:03;12.73;;;8.67;;
15931;SDS011;8065;49.520;11.284;2023-01-04T08:26:30;13.40;;;9.83;;
15931;SDS011;8065;49.520;11.284;2023-01-04T08:28:57;12.17;;;8.60;;
15931;SDS011;8065;49.520;11.284;2023-01-04T08:31:25;11.93;;;9.07;;
15931;SDS011;8065;49.520;11.284;2023-01-04T08:33:53;12.83;;;9.93;;
15931;SDS011;8065;49.520;11.284;2023-01-04T08:36:21;11.83;;;9.23;;
15931;SDS011;8065;49.520;11.284;2023-01-04T08:38:49;13.00;;;8.57;;
15931;SDS011;8065;49.520;11.284;2023-01-04T08:41:19;13.13;;;9.00;;
15931;SDS011;8065;49.520;11.284;2023-01-04T08:43:45;11.70;;;9.00;;
15931;SDS011;8065;49.520;11.284;2023-01-04T08:46:12;13.00;;;9.40;;
15931;SDS011;8065;49.520;11.284;2023-01-04T08:48:39;14.97;;;9.70;;
15931;SDS011;8065;49.520;11.284;2023-01-04T08:51:07;11.77;;;8.43;;
15931;SDS011;8065;49.520;11.284;2023-01-04T08:53:35;13.07;;;9.40;;
15931;SDS011;8065;49.520;11.284;2023-01-04T08:56:02;15.00;;;10.10;;
15931;SDS011;8065;49.520;11.284;2023-01-04T08:58:31;22.70;;;9.70;;
15931;SDS011;8065;49.520;11.284;2023-01-04T09:00:58;14.20;;;9.70;;
15931;SDS011;8065;49.520;11.284;2023-01-04T09:03:26;12.20;;;8.30;;
15931;SDS011;8065;49.520;11.284;2023-01-04T09:05:52;10.67;;;8.27;;
15931;SDS011;8065;49.520;11.284;2023-01-04T09:08:19;12.93;;;9.17;;
15931;SDS011;8065;49.520;11.284;2023-01-04T09:10:45;13.37;;;9.27;;
15931;SDS011;8065;49.520;11.284;2023-01-04T09:13:11;13.00;;;9.10;;
15931;SDS011;8065;49.520;11.284;2023-01-04T09:15:39;13.03;;;9.20;;
15931;SDS011;8065;49.520;11.284;2023-01-04T09:18:06;12.33;;;8.87;;
15931;SDS011;8065;49.520;11.284;2023-01-04T09:20:35;12.60;;;8.63;;
15931;SDS011;8065;49.520;11.284;2023-01-04T09:23:02;11.83;;;8.77;;
15931;SDS011;8065;49.520;11.284;2023-01-04T09:25:28;11.37;;;8.60;;
15931;SDS011;8065;49.520;11.284;2023-01-04T09:27:55;12.63;;;7.97;;
15931;SDS011;8065;49.520;11.284;2023-01-04T09:30:22;10.23;;;8.00;;
15931;SDS011;8065;49.520;11.284;2023-01-04T09:32:50;10.77;;;8.00;;
15931;SDS011;8065;49.520;11.284;2023-01-04T09:35:16;12.13;;;8.03;;
15931;SDS011;8065;49.520;11.284;2023-01-04T09:37:42;10.03;;;7.53;;
15931;SDS011;8065;49.520;11.284;2023-01-04T09:40:10;11.67;;;7.80;;
15931;SDS011;8065;49.520;11.284;2023-01-04T09:42:45;11.20;;;7.67;;
15931;SDS011;8065;49.520;11.284;2023-01-04T09:45:15;11.37;;;8.10;;
15931;SDS011;8065;49.520;11.284;2023-01-04T09:47:44;9.87;;;7.07;;
15931;SDS011;8065;49.520;11.284;2023-01-04T09:50:17;9.27;;;6.97;;
15931;SDS011;8065;49.520;11.284;2023-01-04T09:52:50;10.07;;;7.43;;
15931;SDS011;8065;49.520;11.284;2023-01-04T09:55:28;9.40;;;6.70;;
15931;SDS011;8065;49.520;11.284;2023-01-04T09:58:01;8.97;;;6.90;;
15931;SDS011;8065;49.520;11.284;2023-01-04T10:00:33;8.80;;;6.70;;
15931;SDS011;8065;49.520;11.284;2023-01-04T10:03:02;8.67;;;6.50;;
15931;SDS011;8065;49.520;11.284;2023-01-04T10:05:37;8.67;;;7.00;;
15931;SDS011;8065;49.520;11.284;2023-01-04T10:08:07;10.07;;;7.17;;
15931;SDS011;8065;49.520;11.284;2023-01-04T10:10:42;8.93;;;6.30;;
15931;SDS011;8065;49.520;11.284;2023-01-04T10:13:16;9.47;;;6.67;;
15931;SDS011;8065;49.520;11.284;2023-01-04T10:15:54;8.73;;;7.00;;
15931;SDS011;8065;49.520;11.284;2023-01-04T10:18:33;10.67;;;6.13;;
15931;SDS011;8065;49.520;11.284;2023-01-04T10:21:10;9.00;;;6.83;;
15931;SDS011;8065;49.520;11.284;2023-01-04T10:23:53;8.93;;;6.87;;
15931;SDS011;8065;49.520;11.284;2023-01-04T10:26:28;11.07;;;6.90;;
15931;SDS011;8065;49.520;11.284;2023-01-04T10:29:13;8.67;;;6.30;;
15931;SDS011;8065;49.520;11.284;2023-01-04T10:31:59;8.00;;;5.87;;
15931;SDS011;8065;49.520;11.284;2023-01-04T10:34:30;9.83;;;6.20;;
15931;SDS011;8065;49.520;11.284;2023-01-04T10:37:03;25.63;;;13.20;;
15931;SDS011;8065;49.520;11.284;2023-01-04T10:39:37;13.03;;;8.73;;
15931;SDS011;8065;49.520;11.284;2023-01-04T10:42:07;12.50;;;7.73;;
15931;SDS011;8065;49.520;11.284;2023-01-04T10:44:39;9.37;;;7.17;;
15931;SDS011;8065;49.520;11.284;2023-01-04T10:47:12;10.50;;;8.30;;
15931;SDS011;8065;49.520;11.284;2023-01-04T10:49:45;7.93;;;6.47;;
15931;SDS011;8065;49.520;11.284;2023-01-04T10:52:19;8.33;;;6.30;;
15931;SDS011;8065;49.520;11.284;2023-01-04T10:54:50;7.50;;;6.03;;
15931;SDS011;8065;49.520;11.284;2023-01-04T10:57:22;6.07;;;5.00;;
15931;SDS011;8065;49.520;11.284;2023-01-04T10:59:57;7.03;;;4.97;;
15931;SDS011;8065;49.520;11.284;2023-01-04T11:02:31;7.50;;;6.20;;
15931;SDS011;8065;49.520;11.284;2023-01-04T11:05:03;7.53;;;5.30;;
15931;SDS011;8065;49.520;11.284;2023-01-04T11:07:39;7.03;;;4.73;;
15931;SDS011;8065;49.520;11.284;2023-01-04T11:10:12;6.30;;;4.60;;
15931;SDS011;8065;49.520;11.284;2023-01-04T11:12:40;7.03;;;5.23;;
15931;SDS011;8065;49.520;11.284;2023-01-04T11:15:07;7.40;;;5.97;;
15931;SDS011;8065;49.520;11.284;2023-01-04T11:17:34;8.50;;;6.00;;
15931;SDS011;8065;49.520;11.284;2023-01-04T11:20:01;5.60;;;4.50;;
15931;SDS011;8065;49.520;11.284;2023-01-04T11:22:28;5.37;;;4.60;;
15931;SDS011;8065;49.520;11.284;2023-01-04T11:25:03;6.07;;;4.90;;
15931;SDS011;8065;49.520;11.284;2023-01-04T11:27:34;5.23;;;3.90;;
15931;SDS011;8065;49.520;11.284;2023-01-04T11:30:10;3.83;;;3.40;;
15931;SDS011;8065;49.520;11.284;2023-01-04T11:32:41;4.73;;;3.30;;
15931;SDS011;8065;49.520;11.284;2023-01-04T11:35:14;6.17;;;3.27;;
15931;SDS011;8065;49.520;11.284;2023-01-04T11:37:41;4.33;;;3.30;;
15931;SDS011;8065;49.520;11.284;2023-01-04T11:40:17;4.07;;;3.37;;
15931;SDS011;8065;49.520;11.284;2023-01-04T11:42:46;4.13;;;3.57;;
15931;SDS011;8065;49.520;11.284;2023-01-04T11:45:19;4.50;;;3.40;;
15931;SDS011;8065;49.520;11.284;2023-01-04T11:47:48;3.70;;;2.70;;
15931;SDS011;8065;49.520;11.284;2023-01-04T11:50:31;4.17;;;3.40;;
15931;SDS011;8065;49.520;11.284;2023-01-04T11:53:00;4.73;;;3.70;;
15931;SDS011;8065;49.520;11.284;2023-01-04T11:55:29;4.23;;;3.43;;
15931;SDS011;8065;49.520;11.284;2023-01-04T11:58:08;3.90;;;2.90;;
15931;SDS011;8065;49.520;11.284;2023-01-04T12:00:36;4.13;;;3.00;;
15931;SDS011;8065;49.520;11.284;2023-01-04T12:03:10;3.97;;;2.87;;
15931;SDS011;8065;49.520;11.284;2023-01-04T12:05:38;10.57;;;7.60;;
15931;SDS011;8065;49.520;11.284;2023-01-04T12:08:05;5.57;;;4.47;;
15931;SDS011;8065;49.520;11.284;2023-01-04T12:10:33;3.90;;;3.13;;
15931;SDS011;8065;49.520;11.284;2023-01-04T12:13:00;2.63;;;2.43;;
15931;SDS011;8065;49.520;11.284;2023-01-04T12:15:29;2.73;;;1.83;;
15931;SDS011;8065;49.520;11.284;2023-01-04T12:18:01;4.97;;;2.53;;
15931;SDS011;8065;49.520;11.284;2023-01-04T12:20:31;3.73;;;2.13;;
15931;SDS011;8065;49.520;11.284;2023-01-04T12:22:57;2.60;;;1.70;;
15931;SDS011;8065;49.520;11.284;2023-01-04T12:25:29;2.87;;;2.23;;
15931;SDS011;8065;49.520;11.284;2023-01-04T12:27:59;3.40;;;2.00;;
15931;SDS011;8065;49.520;11.284;2023-01-04T12:30:33;2.60;;;1.90;;
15931;SDS011;8065;49.520;11.284;2023-01-04T12:36:02;4.47;;;1.73;;
15931;SDS011;8065;49.520;11.284;2023-01-04T12:41:23;2.30;;;1.50;;
15931;SDS011;8065;49.520;11.284;2023-01-04T12:47:38;1.40;;;1.20;;
15931;SDS011;8065;49.520;11.284;2023-01-04T12:50:23;1.30;;;1.20;;
15931;SDS011;8065;49.520;11.284;2023-01-04T12:52:52;3.30;;;1.10;;
15931;SDS011;8065;49.520;11.284;2023-01-04T12:55:23;1.23;;;1.13;;
15931;SDS011;8065;49.520;11.284;2023-01-04T12:57:52;2.13;;;1.10;;
15931;SDS011;8065;49.520;11.284;2023-01-04T13:00:19;1.10;;;1.00;;
15931;SDS011;8065;49.520;11.284;2023-01-04T13:02:47;1.43;;;1.00;;
15931;SDS011;8065;49.520;11.284;2023-01-04T13:05:52;3.13;;;1.20;;
15931;SDS011;8065;49.520;11.284;2023-01-04T13:08:23;1.10;;;1.10;;
15931;SDS011;8065;49.520;11.284;2023-01-04T13:10:50;1.80;;;1.20;;
15931;SDS011;8065;49.520;11.284;2023-01-04T13:13:29;1.50;;;1.00;;
15931;SDS011;8065;49.520;11.284;2023-01-04T13:16:12;1.30;;;1.20;;
15931;SDS011;8065;49.520;11.284;2023-01-04T13:18:47;1.40;;;1.30;;
15931;SDS011;8065;49.520;11.284;2023-01-04T13:21:15;3.10;;;1.30;;
15931;SDS011;8065;49.520;11.284;2023-01-04T13:23:47;2.57;;;1.23;;
15931;SDS011;8065;49.520;11.284;2023-01-04T13:26:26;3.83;;;1.33;;
15931;SDS011;8065;49.520;11.284;2023-01-04T13:29:04;1.50;;;1.40;;
15931;SDS011;8065;49.520;11.284;2023-01-04T13:31:39;2.30;;;1.63;;
15931;SDS011;8065;49.520;11.284;2023-01-04T13:34:15;1.33;;;1.07;;
15931;SDS011;8065;49.520;11.284;2023-01-04T13:36:51;3.13;;;1.90;;
15931;SDS011;8065;49.520;11.284;2023-01-04T13:39:19;1.37;;;1.20;;
15931;SDS011;8065;49.520;11.284;2023-01-04T13:41:45;0.93;;;0.93;;
15931;SDS011;8065;49.520;11.284;2023-01-04T13:44:14;2.20;;;1.40;;
15931;SDS011;8065;49.520;11.284;2023-01-04T13:46:52;1.93;;;1.10;;
15931;SDS011;8065;49.520;11.284;2023-01-04T13:49:22;2.93;;;1.10;;
15931;SDS011;8065;49.520;11.284;2023-01-04T13:51:49;1.53;;;0.70;;
15931;SDS011;8065;49.520;11.284;2023-01-04T13:54:17;0.87;;;0.87;;
15931;SDS011;8065;49.520;11.284;2023-01-04T13:56:45;0.90;;;0.90;;
15931;SDS011;8065;49.520;11.284;2023-01-04T13:59:12;1.33;;;0.80;;
15931;SDS011;8065;49.520;11.284;2023-01-04T14:01:40;0.80;;;0.80;;
15931;SDS011;8065;49.520;11.284;2023-01-04T14:04:12;0.97;;;0.73;;
15931;SDS011;8065;49.520;11.284;2023-01-04T14:06:44;0.77;;;0.77;;
15931;SDS011;8065;49.520;11.284;2023-01-04T14:09:13;1.27;;;0.80;;
15931;SDS011;8065;49.520;11.284;2023-01-04T14:11:43;1.93;;;0.90;;
15931;SDS011;8065;49.520;11.284;2023-01-04T14:14:33;0.87;;;0.70;;
15931;SDS011;8065;49.520;11.284;2023-01-04T14:17:07;0.80;;;0.80;;
15931;SDS011;8065;49.520;11.284;2023-01-04T14:19:49;1.53;;;0.80;;
15931;SDS011;8065;49.520;11.284;2023-01-04T14:22:24;0.77;;;0.77;;
15931;SDS011;8065;49.520;11.284;2023-01-04T14:24:59;1.00;;;0.80;;
15931;SDS011;8065;49.520;11.284;2023-01-04T14:27:47;2.80;;;1.00;;
15931;SDS011;8065;49.520;11.284;2023-01-04T14:30:22;1.53;;;0.90;;
15931;SDS011;8065;49.520;11.284;2023-01-04T14:32:53;0.80;;;0.70;;
15931;SDS011;8065;49.520;11.284;2023-01-04T14:35:21;1.07;;;0.70;;
15931;SDS011;8065;49.520;11.284;2023-01-04T14:37:48;1.10;;;0.90;;
15931;SDS011;8065;49.520;11.284;2023-01-04T14:40:23;0.70;;;0.60;;
15931;SDS011;8065;49.520;11.284;2023-01-04T14:42:54;0.70;;;0.70;;
15931;SDS011;8065;49.520;11.284;2023-01-04T14:45:20;0.90;;;0.90;;
15931;SDS011;8065;49.520;11.284;2023-01-04T14:47:47;2.57;;;0.90;;
15931;SDS011;8065;49.520;11.284;2023-01-04T14:50:14;1.13;;;1.00;;
15931;SDS011;8065;49.520;11.284;2023-01-04T14:52:48;1.00;;;0.60;;
15931;SDS011;8065;49.520;11.284;2023-01-04T14:55:15;1.90;;;0.80;;
15931;SDS011;8065;49.520;11.284;2023-01-04T14:57:42;1.27;;;0.73;;
15931;SDS011;8065;49.520;11.284;2023-01-04T15:00:13;1.53;;;0.90;;
15931;SDS011;8065;49.520;11.284;2023-01-04T15:02:40;1.07;;;0.70;;
15931;SDS011;8065;49.520;11.284;2023-01-04T15:05:07;1.00;;;1.00;;
15931;SDS011;8065;49.520;11.284;2023-01-04T15:07:35;0.90;;;0.90;;